createdAt,value
2018-12-03T00:01:43.631Z,48.13
2018-12-03T00:04:18.538Z,43.07
2018-12-03T00:06:46.093Z,41.90
2018-12-03T00:09:13.604Z,46.30
2018-12-03T00:11:41.031Z,44.70
2018-12-03T00:14:08.495Z,40.80
2018-12-03T00:16:35.939Z,45.73
2018-12-03T00:19:03.481Z,45.87
2018-12-03T00:21:30.983Z,46.03
2018-12-03T00:23:58.438Z,48.27
2018-12-03T00:26:25.917Z,47.80
2018-12-03T00:28:53.373Z,50.67
2018-12-03T00:31:20.817Z,46.53
2018-12-03T00:33:48.287Z,48.83
2018-12-03T00:36:15.718Z,46.20
2018-12-03T00:38:43.275Z,48.53
2018-12-03T00:41:10.768Z,45.87
2018-12-03T00:43:38.212Z,46.83
2018-12-03T00:46:05.607Z,46.63
2018-12-03T00:48:33.169Z,45.33
2018-12-03T00:51:00.733Z,49.33
2018-12-03T00:53:28.288Z,50.50
2018-12-03T00:55:55.732Z,49.07
2018-12-03T00:58:23.107Z,47.87
2018-12-03T01:00:50.542Z,50.07
2018-12-03T01:03:18.026Z,51.43
2018-12-03T01:05:45.464Z,50.00
2018-12-03T01:08:12.839Z,49.43
2018-12-03T01:10:40.276Z,52.30
2018-12-03T01:13:07.651Z,51.60
2018-12-03T01:15:35.114Z,50.37
2018-12-03T01:18:02.604Z,52.43
2018-12-03T01:20:30.012Z,47.83
2018-12-03T01:22:57.472Z,52.00
2018-12-03T01:25:24.923Z,51.23
2018-12-03T01:27:52.708Z,51.00
2018-12-03T01:30:20.181Z,46.67
2018-12-03T01:32:47.572Z,51.07
2018-12-03T01:35:14.945Z,50.60
2018-12-03T01:37:42.298Z,46.90
2018-12-03T01:40:11.160Z,45.90
2018-12-03T01:42:38.669Z,47.40
2018-12-03T01:45:07.596Z,44.47
2018-12-03T01:47:34.985Z,45.73
2018-12-03T01:50:02.370Z,46.57
2018-12-03T01:52:29.807Z,47.80
2018-12-03T01:54:57.207Z,48.70
2018-12-03T01:57:24.618Z,44.40
2018-12-03T01:59:51.984Z,48.03
2018-12-03T02:02:19.461Z,47.90
2018-12-03T02:04:46.965Z,48.13
2018-12-03T02:07:14.351Z,44.70
2018-12-03T02:09:41.800Z,46.90
2018-12-03T02:12:09.147Z,44.87
2018-12-03T02:14:36.526Z,45.77
2018-12-03T02:17:03.970Z,47.87
2018-12-03T02:19:31.312Z,49.00
2018-12-03T02:21:58.688Z,47.53
2018-12-03T02:24:26.143Z,49.13
2018-12-03T02:26:53.586Z,48.00
2018-12-03T02:29:20.963Z,46.57
2018-12-03T02:31:48.417Z,47.63
2018-12-03T02:34:15.887Z,46.00
2018-12-03T02:36:43.295Z,48.47
2018-12-03T02:39:10.651Z,44.57
2018-12-03T02:41:38.030Z,49.50
2018-12-03T02:44:05.614Z,47.97
2018-12-03T02:46:33.052Z,47.93
2018-12-03T02:49:00.811Z,48.40
2018-12-03T02:51:28.165Z,47.37
2018-12-03T02:53:55.616Z,47.17
2018-12-03T02:56:23.024Z,45.60
2018-12-03T02:58:51.452Z,47.30
2018-12-03T03:01:18.916Z,48.60
2018-12-03T03:03:46.387Z,47.73
2018-12-03T03:06:13.834Z,48.17
2018-12-03T03:08:41.301Z,49.97
2018-12-03T03:11:08.739Z,50.53
2018-12-03T03:13:36.120Z,45.57
2018-12-03T03:16:03.549Z,44.93
2018-12-03T03:18:30.907Z,41.00
2018-12-03T03:20:58.264Z,42.10
2018-12-03T03:23:25.730Z,44.83
2018-12-03T03:25:53.171Z,45.50
2018-12-03T03:28:20.555Z,42.80
2018-12-03T03:30:47.990Z,43.03
2018-12-03T03:33:15.449Z,43.33
2018-12-03T03:35:43.236Z,42.70
2018-12-03T03:38:10.651Z,32.60
2018-12-03T03:40:38.035Z,29.20
2018-12-03T03:43:05.781Z,22.37
2018-12-03T03:45:33.169Z,39.13
2018-12-03T03:48:00.620Z,45.53
2018-12-03T03:50:28.053Z,45.90
2018-12-03T03:52:55.388Z,46.40
2018-12-03T03:55:22.749Z,43.40
2018-12-03T03:57:50.125Z,44.63
2018-12-03T04:00:17.575Z,45.73
2018-12-03T04:02:45.027Z,47.20
2018-12-03T04:05:12.943Z,46.03
2018-12-03T04:07:40.646Z,46.77
2018-12-03T04:10:09.613Z,48.83
2018-12-03T04:12:37.036Z,47.80
2018-12-03T04:15:05.524Z,46.47
2018-12-03T04:17:32.963Z,48.57
2018-12-03T04:20:00.386Z,48.63
2018-12-03T04:22:27.768Z,45.77
2018-12-03T04:24:55.225Z,48.80
2018-12-03T04:27:22.661Z,47.07
2018-12-03T04:29:50.022Z,48.03
2018-12-03T04:32:17.391Z,47.07
2018-12-03T04:34:44.834Z,41.37
2018-12-03T04:37:12.188Z,37.83
2018-12-03T04:39:39.534Z,33.90
2018-12-03T04:42:06.924Z,36.60
2018-12-03T04:44:34.344Z,37.50
2018-12-03T04:47:01.708Z,37.50
2018-12-03T04:49:29.068Z,37.60
2018-12-03T04:51:56.412Z,36.30
2018-12-03T04:54:23.798Z,36.60
2018-12-03T04:56:51.231Z,37.50
2018-12-03T04:59:18.934Z,39.70
2018-12-03T05:01:46.362Z,35.90
2018-12-03T05:04:13.806Z,34.23
2018-12-03T05:06:41.315Z,33.13
2018-12-03T05:09:08.954Z,36.50
2018-12-03T05:11:36.799Z,36.43
2018-12-03T05:14:04.169Z,36.53
2018-12-03T05:16:31.606Z,40.90
2018-12-03T05:18:58.993Z,45.53
2018-12-03T05:21:26.859Z,41.67
2018-12-03T05:23:54.327Z,40.00
2018-12-03T05:26:21.743Z,44.23
2018-12-03T05:28:49.109Z,45.43
2018-12-03T05:31:16.539Z,42.73
2018-12-03T05:33:43.931Z,45.07
2018-12-03T05:36:51.699Z,46.73
2018-12-03T05:39:19.281Z,43.50
2018-12-03T05:41:46.872Z,44.20
2018-12-03T05:44:14.403Z,44.30
2018-12-03T05:46:41.978Z,44.70
2018-12-03T05:49:09.512Z,46.00
2018-12-03T05:51:37.401Z,43.60
2018-12-03T05:54:04.989Z,41.97
2018-12-03T05:56:32.533Z,44.70
2018-12-03T05:59:00.110Z,45.60
2018-12-03T06:01:27.632Z,46.13
2018-12-03T06:03:55.218Z,45.40
2018-12-03T06:06:22.742Z,46.80
2018-12-03T06:08:50.417Z,47.00
2018-12-03T06:11:18.021Z,45.30
2018-12-03T06:13:45.730Z,45.10
2018-12-03T06:16:13.367Z,47.90
2018-12-03T06:18:40.985Z,49.40
2018-12-03T06:21:08.527Z,45.50
2018-12-03T06:23:36.188Z,46.17
2018-12-03T06:26:03.781Z,46.83
2018-12-03T06:28:31.349Z,45.70
2018-12-03T06:30:58.839Z,47.17
2018-12-03T06:33:26.461Z,45.33
2018-12-03T06:35:53.978Z,42.97
2018-12-03T06:38:21.575Z,46.67
2018-12-03T06:40:49.636Z,44.23
2018-12-03T06:43:17.300Z,45.00
2018-12-03T06:45:44.829Z,47.27
2018-12-03T06:48:19.697Z,48.40
2018-12-03T06:50:47.234Z,45.60
2018-12-03T06:53:14.795Z,49.30
2018-12-03T06:55:42.767Z,47.57
2018-12-03T06:58:10.413Z,48.20
2018-12-03T07:00:37.978Z,45.80
2018-12-03T07:03:05.741Z,47.43
2018-12-03T07:05:33.278Z,44.93
2018-12-03T07:08:01.172Z,42.83
2018-12-03T07:10:28.739Z,44.70
2018-12-03T07:13:00.198Z,43.80
2018-12-03T07:15:28.273Z,42.07
2018-12-03T07:17:56.679Z,43.07
2018-12-03T07:20:24.315Z,45.40
2018-12-03T07:22:51.836Z,49.60
2018-12-03T07:25:19.513Z,46.10
2018-12-03T07:27:47.057Z,50.20
2018-12-03T07:30:15.279Z,47.50
2018-12-03T07:32:43.024Z,48.67
2018-12-03T07:35:10.588Z,49.40
2018-12-03T07:37:38.193Z,45.90
2018-12-03T07:40:06.984Z,45.67
2018-12-03T07:42:34.618Z,45.30
2018-12-03T07:45:02.161Z,45.40
2018-12-03T07:47:29.711Z,43.17
2018-12-03T07:49:57.246Z,44.67
2018-12-03T07:52:24.848Z,42.60
2018-12-03T07:54:52.355Z,44.03
2018-12-03T07:57:19.930Z,44.10
2018-12-03T07:59:47.517Z,44.97
2018-12-03T08:02:15.173Z,42.53
2018-12-03T08:04:42.725Z,44.07
2018-12-03T08:07:10.272Z,41.27
2018-12-03T08:09:37.864Z,38.60
2018-12-03T08:12:05.417Z,40.17
2018-12-03T08:14:32.945Z,42.10
2018-12-03T08:17:00.546Z,39.37
2018-12-03T08:19:28.191Z,39.80
2018-12-03T08:21:55.852Z,39.37
2018-12-03T08:24:23.418Z,42.27
2018-12-03T08:26:50.944Z,45.50
2018-12-03T08:29:20.583Z,46.50
2018-12-03T08:31:48.143Z,45.50
2018-12-03T08:34:15.682Z,43.43
2018-12-03T08:36:43.195Z,44.37
2018-12-03T08:39:11.190Z,42.33
2018-12-03T08:41:38.794Z,40.87
2018-12-03T08:44:06.468Z,46.73
2018-12-03T08:46:34.121Z,45.20
2018-12-03T08:49:01.780Z,41.20
2018-12-03T08:51:29.306Z,46.60
2018-12-03T08:53:56.896Z,50.97
2018-12-03T08:56:24.458Z,47.80
2018-12-03T08:58:51.996Z,42.80
2018-12-03T09:01:20.600Z,44.67
2018-12-03T09:04:06.095Z,42.97
2018-12-03T09:06:33.735Z,64.37
2018-12-03T09:09:01.288Z,63.83
2018-12-03T09:11:28.858Z,64.20
2018-12-03T09:13:56.421Z,50.83
2018-12-03T09:16:23.956Z,44.20
2018-12-03T09:18:51.526Z,44.90
2018-12-03T09:21:19.208Z,43.43
2018-12-03T09:23:47.499Z,42.53
2018-12-03T09:26:15.459Z,44.90
2018-12-03T09:28:43.080Z,46.70
2018-12-03T09:31:15.644Z,47.30
2018-12-03T09:33:45.297Z,45.90
2018-12-03T09:36:15.953Z,47.50
2018-12-03T09:38:56.400Z,45.20
2018-12-03T09:41:23.933Z,45.67
2018-12-03T09:43:51.805Z,46.53
2018-12-03T09:46:20.607Z,45.33
2018-12-03T09:48:49.924Z,44.50
2018-12-03T09:51:18.978Z,45.97
2018-12-03T09:53:48.291Z,45.97
2018-12-03T09:56:15.879Z,44.50
2018-12-03T09:58:43.502Z,47.43
2018-12-03T10:01:11.382Z,49.13
2018-12-03T10:03:42.661Z,45.17
2018-12-03T10:06:11.512Z,44.70
2018-12-03T10:08:39.178Z,44.97
2018-12-03T10:11:06.824Z,44.50
2018-12-03T10:13:34.396Z,46.10
2018-12-03T10:16:01.959Z,45.50
2018-12-03T10:18:29.506Z,44.90
2018-12-03T10:20:58.007Z,44.37
2018-12-03T10:23:26.241Z,44.40
2018-12-03T10:25:57.155Z,44.20
2018-12-03T10:28:24.969Z,46.40
2018-12-03T10:30:53.756Z,45.70
2018-12-03T10:33:28.193Z,44.17
2018-12-03T10:35:56.838Z,43.87
2018-12-03T10:38:25.150Z,43.43
2018-12-03T10:40:56.898Z,39.60
2018-12-03T10:43:24.969Z,39.00
2018-12-03T10:45:52.516Z,38.40
2018-12-03T10:48:20.056Z,39.67
2018-12-03T10:50:47.948Z,35.43
2018-12-03T10:53:15.491Z,28.17
2018-12-03T10:55:43.608Z,24.53
2018-12-03T10:58:12.497Z,25.67
2018-12-03T11:00:57.973Z,25.47
2018-12-03T11:03:43.257Z,27.00
2018-12-03T11:06:20.821Z,24.47
2018-12-03T11:08:48.469Z,25.90
2018-12-03T11:11:16.080Z,21.80
2018-12-03T11:13:43.640Z,20.70
2018-12-03T11:16:14.104Z,21.07
2018-12-03T11:18:42.958Z,23.70
2018-12-03T11:21:10.481Z,17.03
2018-12-03T11:23:38.021Z,18.77
2018-12-03T11:26:06.633Z,14.00
2018-12-03T11:28:36.037Z,15.43
2018-12-03T11:31:03.629Z,14.47
2018-12-03T11:33:31.222Z,14.63
2018-12-03T11:35:59.455Z,15.73
2018-12-03T11:38:31.630Z,17.00
2018-12-03T11:40:59.241Z,18.60
2018-12-03T11:43:27.868Z,17.70
2018-12-03T11:45:55.478Z,17.90
2018-12-03T11:48:23.055Z,16.90
2018-12-03T11:50:50.716Z,17.40
2018-12-03T11:53:18.433Z,17.03
2018-12-03T11:55:46.130Z,17.13
2018-12-03T11:58:13.773Z,16.87
2018-12-03T12:00:41.353Z,16.77
2018-12-03T12:03:09.013Z,15.43
2018-12-03T12:05:36.698Z,16.17
2018-12-03T12:08:04.408Z,16.20
2018-12-03T12:10:32.001Z,14.40
2018-12-03T12:12:59.677Z,13.43
2018-12-03T12:15:27.210Z,15.97
2018-12-03T12:17:54.807Z,16.40
2018-12-03T12:20:22.332Z,14.90
2018-12-03T12:22:49.837Z,15.37
2018-12-03T12:25:17.655Z,15.90
2018-12-03T12:27:49.567Z,16.70
2018-12-03T12:30:18.192Z,16.13
2018-12-03T12:32:45.792Z,16.27
2018-12-03T12:35:14.273Z,16.83
2018-12-03T12:37:41.824Z,16.17
2018-12-03T12:40:13.046Z,17.40
2018-12-03T12:42:41.022Z,16.67
2018-12-03T12:45:15.562Z,18.17
2018-12-03T12:47:43.286Z,18.03
2018-12-03T12:50:14.912Z,18.37
2018-12-03T12:52:42.577Z,17.20
2018-12-03T12:55:10.204Z,18.67
2018-12-03T12:57:37.887Z,19.23
2018-12-03T13:00:12.502Z,20.00
2018-12-03T13:02:41.265Z,19.57
2018-12-03T13:05:08.852Z,20.07
2018-12-03T13:07:36.421Z,20.27
2018-12-03T13:10:04.689Z,20.10
2018-12-03T13:12:32.231Z,20.67
2018-12-03T13:14:59.881Z,21.10
2018-12-03T13:17:27.447Z,20.80
2018-12-03T13:19:55.020Z,18.23
2018-12-03T13:22:30.929Z,19.23
2018-12-03T13:24:58.517Z,22.97
2018-12-03T13:27:26.193Z,23.60
2018-12-03T13:29:53.825Z,23.33
2018-12-03T13:32:21.402Z,23.23
2018-12-03T13:34:49.040Z,23.00
2018-12-03T13:37:16.628Z,23.10
2018-12-03T13:39:44.228Z,23.90
2018-12-03T13:42:11.788Z,23.83
2018-12-03T13:44:39.398Z,22.30
2018-12-03T13:47:07.082Z,23.20
2018-12-03T13:49:35.820Z,23.00
2018-12-03T13:52:03.436Z,21.90
2018-12-03T13:54:30.958Z,21.70
2018-12-03T13:56:58.525Z,23.23
2018-12-03T13:59:26.220Z,23.60
2018-12-03T14:01:54.529Z,24.57
2018-12-03T14:04:23.994Z,24.90
2018-12-03T14:06:54.438Z,26.57
2018-12-03T14:09:25.182Z,24.20
2018-12-03T14:12:12.236Z,23.10
2018-12-03T14:15:08.443Z,24.60
2018-12-03T14:17:47.006Z,22.27
2018-12-03T14:20:14.549Z,21.67
2018-12-03T14:22:46.232Z,22.00
2018-12-03T14:25:13.910Z,23.13
2018-12-03T14:27:41.529Z,23.83
2018-12-03T14:30:09.869Z,24.30
2018-12-03T14:32:37.581Z,23.10
2018-12-03T14:35:06.485Z,21.77
2018-12-03T14:37:34.139Z,22.20
2018-12-03T14:40:01.731Z,22.37
2018-12-03T14:42:29.281Z,21.90
2018-12-03T14:44:56.822Z,21.60
2018-12-03T14:47:24.417Z,21.00
2018-12-03T14:49:52.186Z,21.50
2018-12-03T14:52:19.781Z,21.17
2018-12-03T14:54:47.637Z,22.50
2018-12-03T14:57:15.310Z,22.73
2018-12-03T14:59:42.889Z,22.63
2018-12-03T15:02:10.464Z,22.93
2018-12-03T15:04:37.992Z,22.30
2018-12-03T15:07:05.899Z,26.53
2018-12-03T15:09:33.518Z,26.57
2018-12-03T15:12:01.201Z,23.23
2018-12-03T15:14:28.800Z,20.90
2018-12-03T15:16:56.410Z,19.60
2018-12-03T15:19:24.050Z,20.63
2018-12-03T15:21:51.751Z,20.20
2018-12-03T15:24:19.418Z,22.20
2018-12-03T15:26:46.976Z,20.67
2018-12-03T15:29:14.612Z,22.03
2018-12-03T15:31:42.285Z,19.73
2018-12-03T15:34:09.828Z,19.90
2018-12-03T15:36:37.377Z,19.20
2018-12-03T15:39:06.926Z,19.47
2018-12-03T15:41:34.572Z,18.30
2018-12-03T15:44:02.179Z,17.60
2018-12-03T15:46:29.774Z,17.37
2018-12-03T15:48:57.371Z,19.70
2018-12-03T15:51:25.005Z,19.90
2018-12-03T15:53:52.596Z,20.10
2018-12-03T15:56:20.355Z,22.20
2018-12-03T15:58:48.018Z,31.70
2018-12-03T16:01:15.739Z,23.67
2018-12-03T16:03:44.656Z,20.73
2018-12-03T16:06:12.223Z,20.50
2018-12-03T16:08:39.845Z,20.67
2018-12-03T16:11:07.862Z,20.60
2018-12-03T16:13:35.420Z,19.17
2018-12-03T16:16:02.960Z,17.80
2018-12-03T16:18:30.545Z,16.47
2018-12-03T16:20:58.173Z,18.30
2018-12-03T16:23:26.141Z,16.93
2018-12-03T16:25:53.857Z,17.50
2018-12-03T16:28:21.425Z,17.60
2018-12-03T16:30:49.065Z,17.60
2018-12-03T16:33:16.700Z,17.70
2018-12-03T16:35:44.250Z,17.13
2018-12-03T16:38:11.822Z,16.50
2018-12-03T16:40:39.510Z,15.80
2018-12-03T16:43:07.176Z,17.40
2018-12-03T16:45:34.800Z,19.07
2018-12-03T16:48:02.358Z,19.50
2018-12-03T16:50:29.938Z,26.00
2018-12-03T16:52:57.590Z,38.40
2018-12-03T16:55:25.287Z,20.80
2018-12-03T16:57:53.969Z,31.47
2018-12-03T17:00:21.562Z,34.80
2018-12-03T17:02:49.166Z,23.40
2018-12-03T17:05:17.842Z,18.23
2018-12-03T17:07:45.592Z,15.17
2018-12-03T17:10:14.004Z,15.23
2018-12-03T17:12:41.570Z,19.17
2018-12-03T17:15:09.244Z,18.63
2018-12-03T17:17:36.875Z,17.60
2018-12-03T17:20:07.214Z,18.40
2018-12-03T17:22:36.351Z,17.50
2018-12-03T17:25:05.607Z,17.10
2018-12-03T17:27:33.277Z,16.20
2018-12-03T17:30:00.888Z,16.27
2018-12-03T17:32:28.611Z,15.07
2018-12-03T17:34:56.223Z,15.50
2018-12-03T17:37:23.788Z,15.37
2018-12-03T17:39:51.498Z,14.60
2018-12-03T17:42:19.125Z,14.60
2018-12-03T17:44:46.797Z,15.40
2018-12-03T17:47:14.457Z,14.50
2018-12-03T17:49:42.110Z,15.93
2018-12-03T17:52:09.792Z,15.27
2018-12-03T17:54:37.396Z,15.23
2018-12-03T17:57:05.032Z,14.70
2018-12-03T17:59:32.694Z,21.83
2018-12-03T18:02:00.353Z,14.50
2018-12-03T18:04:27.960Z,20.10
2018-12-03T18:06:55.613Z,19.43
2018-12-03T18:09:23.338Z,16.97
2018-12-03T18:11:50.874Z,17.10
2018-12-03T18:14:20.571Z,16.93
2018-12-03T18:16:48.224Z,17.23
2018-12-03T18:19:16.115Z,16.03
2018-12-03T18:21:43.753Z,17.40
2018-12-03T18:24:12.441Z,18.30
2018-12-03T18:26:40.023Z,18.23
2018-12-03T18:29:08.674Z,18.07
2018-12-03T18:31:36.258Z,17.20
2018-12-03T18:34:04.812Z,17.27
2018-12-03T18:36:32.361Z,19.90
2018-12-03T18:38:59.951Z,18.80
2018-12-03T18:41:27.491Z,20.20
2018-12-03T18:43:55.011Z,19.80
2018-12-03T18:46:22.707Z,18.70
2018-12-03T18:48:53.066Z,18.33
2018-12-03T18:51:20.687Z,15.60
2018-12-03T18:53:48.350Z,16.23
2018-12-03T18:56:15.942Z,16.83
2018-12-03T18:58:45.559Z,18.60
2018-12-03T19:01:13.212Z,16.70
2018-12-03T19:03:40.784Z,19.57
2018-12-03T19:06:09.652Z,18.50
2018-12-03T19:08:37.251Z,16.70
2018-12-03T19:11:04.864Z,19.40
2018-12-03T19:13:32.560Z,20.53
2018-12-03T19:16:00.329Z,21.73
2018-12-03T19:18:27.860Z,21.23
2018-12-03T19:20:55.434Z,20.97
2018-12-03T19:23:22.967Z,20.73
2018-12-03T19:25:50.539Z,20.77
2018-12-03T19:28:18.202Z,20.43
2018-12-03T19:30:45.742Z,21.30
2018-12-03T19:33:13.427Z,20.67
2018-12-03T19:35:41.128Z,21.40
2018-12-03T19:38:08.750Z,25.90
2018-12-03T19:40:36.306Z,25.67
2018-12-03T19:43:03.985Z,24.90
2018-12-03T19:45:31.546Z,23.67
2018-12-03T19:47:59.215Z,22.23
2018-12-03T19:50:26.729Z,22.33
2018-12-03T19:52:54.775Z,21.77
2018-12-03T19:55:22.514Z,22.30
2018-12-03T19:58:10.400Z,25.60
2018-12-03T20:00:38.024Z,25.50
2018-12-03T20:03:05.687Z,25.80
2018-12-03T20:05:33.370Z,24.50
2018-12-03T20:08:01.045Z,27.27
2018-12-03T20:10:28.701Z,24.67
2018-12-03T20:12:56.705Z,27.77
2018-12-03T20:15:24.456Z,28.07
2018-12-03T20:17:52.112Z,23.93
2018-12-03T20:20:22.218Z,23.23
2018-12-03T20:22:55.430Z,22.03
2018-12-03T20:25:24.524Z,22.53
2018-12-03T20:28:00.236Z,23.90
2018-12-03T20:30:59.028Z,20.90
2018-12-03T20:33:30.317Z,20.17
2018-12-03T20:36:13.220Z,19.40
2018-12-03T20:38:52.600Z,18.17
2018-12-03T20:41:22.262Z,17.10
2018-12-03T20:43:51.998Z,16.03
2018-12-03T20:46:30.832Z,14.80
2018-12-03T20:49:12.629Z,18.10
2018-12-03T20:51:41.498Z,19.00
2018-12-03T20:54:09.132Z,14.03
2018-12-03T20:56:36.813Z,17.60
2018-12-03T20:59:04.486Z,20.40
2018-12-03T21:01:40.569Z,21.00
2018-12-03T21:04:08.185Z,22.00
2018-12-03T21:06:35.842Z,19.03
2018-12-03T21:09:04.430Z,19.63
2018-12-03T21:11:32.017Z,21.90
2018-12-03T21:14:01.617Z,19.87
2018-12-03T21:16:29.170Z,18.90
2018-12-03T21:18:56.833Z,18.63
2018-12-03T21:21:25.506Z,20.80
2018-12-03T21:23:53.376Z,23.40
2018-12-03T21:26:20.956Z,20.20
2018-12-03T21:28:48.924Z,19.00
2018-12-03T21:31:19.909Z,16.97
2018-12-03T21:33:56.389Z,16.40
2018-12-03T21:36:24.915Z,15.60
2018-12-03T21:38:53.486Z,17.30
2018-12-03T21:41:21.221Z,16.40
2018-12-03T21:43:48.811Z,17.13
2018-12-03T21:46:18.326Z,16.57
2018-12-03T21:48:46.429Z,16.30
2018-12-03T21:51:14.061Z,16.20
2018-12-03T21:53:41.715Z,15.73
2018-12-03T21:56:10.342Z,14.50
2018-12-03T21:58:37.973Z,14.60
2018-12-03T22:01:06.632Z,14.43
2018-12-03T22:03:40.148Z,14.03
2018-12-03T22:06:07.805Z,14.50
2018-12-03T22:08:45.596Z,15.20
2018-12-03T22:11:14.286Z,15.83
2018-12-03T22:13:46.680Z,16.70
2018-12-03T22:16:17.716Z,14.73
2018-12-03T22:18:46.295Z,14.40
2018-12-03T22:21:18.357Z,12.50
2018-12-03T22:23:47.984Z,15.10
2018-12-03T22:26:15.514Z,13.80
2018-12-03T22:28:46.172Z,12.20
2018-12-03T22:31:15.867Z,12.60
2018-12-03T22:33:55.949Z,13.57
2018-12-03T22:36:23.497Z,17.43
2018-12-03T22:38:51.147Z,15.53
2018-12-03T22:41:18.770Z,15.00
2018-12-03T22:43:46.411Z,15.90
2018-12-03T22:46:13.906Z,16.03
2018-12-03T22:48:41.492Z,17.50
2018-12-03T22:51:09.041Z,17.60
2018-12-03T22:53:36.567Z,16.33
2018-12-03T22:56:10.115Z,16.13
2018-12-03T22:58:39.777Z,15.70
2018-12-03T23:01:07.972Z,18.00
2018-12-03T23:03:35.566Z,18.00
2018-12-03T23:06:03.320Z,15.37
2018-12-03T23:08:30.933Z,15.97
2018-12-03T23:11:00.590Z,15.00
2018-12-03T23:13:33.992Z,15.20
2018-12-03T23:16:02.582Z,14.90
2018-12-03T23:18:30.106Z,16.30
2018-12-03T23:20:58.669Z,21.27
2018-12-03T23:23:26.352Z,19.20
2018-12-03T23:25:53.926Z,15.80
2018-12-03T23:28:21.546Z,15.10
2018-12-03T23:30:49.152Z,19.87
2018-12-03T23:33:16.691Z,26.60
2018-12-03T23:35:44.341Z,20.40
2018-12-03T23:38:13.857Z,18.00
2018-12-03T23:40:49.393Z,18.50
2018-12-03T23:43:16.976Z,19.50
2018-12-03T23:45:46.581Z,20.57
2018-12-03T23:48:14.159Z,17.93
2018-12-03T23:50:42.813Z,19.10
2018-12-03T23:53:10.389Z,18.53
2018-12-03T23:55:39.036Z,19.00
2018-12-03T23:58:07.664Z,20.23
